Time;durP1;ratioP1;P1;durP2;ratioP2;P2;SDS_P1;SDS_P2;PMS_P1;PMS_P2;Temp;Humidity;BMP_temperature;BMP_pressure;BME280_temperature;BME280_humidity;BME280_pressure;Samples;Min_cycle;Max_cycle;Signal;HPM_P1;HPM_P2
2022/09/16 00:00:11;;;;;;;4.03;2.63;;;;;;;20.62;nan;-24390.53;5030870;28;20254;-67
2022/09/16 00:02:36;;;;;;;4.70;3.17;;;;;;;20.28;nan;-24381.22;5031056;28;20266;-67
2022/09/16 00:05:02;;;;;;;2.90;2.17;;;;;;;20.17;nan;-24378.19;5030863;28;20167;-67
2022/09/16 00:07:29;;;;;;;5.07;2.55;;;;;;;20.58;nan;-24389.28;5033500;28;20188;-67
2022/09/16 00:09:54;;;;;;;3.22;2.15;;;;;;;20.16;nan;-24377.75;5035034;28;20187;-67
2022/09/16 00:12:19;;;;;;;4.82;2.10;;;;;;;20.16;nan;-24377.91;5041798;28;20198;-67
2022/09/16 00:14:45;;;;;;;5.38;2.10;;;;;;;20.47;nan;-24386.38;5044564;28;20182;-67
2022/09/16 00:17:10;;;;;;;3.50;2.30;;;;;;;20.37;nan;-24383.59;5036826;28;20681;-67
2022/09/16 00:19:36;;;;;;;3.40;2.03;;;;;;;20.07;nan;-24375.41;5038334;28;20590;-67
2022/09/16 00:22:01;;;;;;;3.85;2.17;;;;;;;20.24;nan;-24380.13;5035054;28;20234;-67
2022/09/16 00:24:50;;;;;;;3.25;2.25;;;;;;;19.88;nan;-24370.13;5047556;28;20717;-67
2022/09/16 00:27:16;;;;;;;3.10;2.20;;;;;;;19.98;nan;-24372.91;5043271;28;20187;-67
2022/09/16 00:29:41;;;;;;;3.83;2.50;;;;;;;19.77;nan;-24367.06;5041073;28;20278;-67
2022/09/16 00:32:07;;;;;;;7.00;2.55;;;;;;;19.45;nan;-24358.16;5042982;28;20198;-67
2022/09/16 00:34:32;;;;;;;4.65;2.17;;;;;;;19.75;nan;-24366.66;5039214;28;20638;-67
2022/09/16 00:36:58;;;;;;;4.85;2.03;;;;;;;19.84;nan;-24369.16;5047271;28;20182;-67
2022/09/16 00:39:23;;;;;;;2.90;2.25;;;;;;;19.85;nan;-24369.44;5045333;28;20278;-67
2022/09/16 00:41:49;;;;;;;2.92;1.77;;;;;;;19.89;nan;-24370.25;5044181;28;20182;-67
2022/09/16 00:45:08;;;;;;;6.28;2.20;;;;;;;19.90;nan;-24370.69;5043422;28;20191;-66
2022/09/16 00:47:39;;;;;;;3.30;2.55;;;;;;;19.93;nan;-24371.38;5009743;28;20188;-67
2022/09/16 00:50:53;;;;;;;2.80;2.13;;;;;;;20.03;nan;-24374.28;5037748;28;20212;-67
2022/09/16 00:53:26;;;;;;;4.50;2.53;;;;;;;19.68;nan;-24364.56;5035118;28;20219;-67
2022/09/16 00:55:55;;;;;;;3.85;2.22;;;;;;;19.81;nan;-24368.31;5047326;28;20194;-67
2022/09/16 00:58:53;;;;;;;4.18;2.45;;;;;;;19.74;nan;-24366.22;5042514;28;20171;-67
2022/09/16 01:01:18;;;;;;;3.15;2.10;;;;;;;19.76;nan;-24366.94;5032718;28;20195;-67
2022/09/16 01:03:49;;;;;;;4.22;2.40;;;;;;;19.36;nan;-24355.81;5038704;28;20176;-67
2022/09/16 01:06:17;;;;;;;3.60;2.60;;;;;;;19.38;nan;-24356.50;5043107;28;20630;-67
2022/09/16 01:08:43;;;;;;;4.53;2.67;;;;;;;19.75;nan;-24366.50;5039035;28;20681;-67
2022/09/16 01:11:09;;;;;;;2.55;1.90;;;;;;;19.92;nan;-24371.09;5043450;28;20211;-67
2022/09/16 01:13:35;;;;;;;6.05;2.13;;;;;;;19.95;nan;-24371.94;5040498;28;20214;-67
2022/09/16 01:16:28;;;;;;;8.00;2.20;;;;;;;19.82;nan;-24368.47;5049370;28;20178;-67
2022/09/16 01:19:10;;;;;;;3.78;1.92;;;;;;;19.38;nan;-24356.34;5039544;28;20226;-67
2022/09/16 01:21:57;;;;;;;3.72;1.92;;;;;;;19.90;nan;-24370.53;5038076;28;20222;-67
2022/09/16 01:24:35;;;;;;;5.03;2.35;;;;;;;19.71;nan;-24365.53;5047603;28;20266;-67
2022/09/16 01:27:31;;;;;;;3.58;2.13;;;;;;;19.91;nan;-24370.97;5036868;28;20202;-67
2022/09/16 01:30:24;;;;;;;3.30;2.35;;;;;;;19.79;nan;-24367.75;5039667;28;20184;-67
2022/09/16 01:33:05;;;;;;;3.97;2.30;;;;;;;19.71;nan;-24365.41;5052545;28;20210;-67
2022/09/16 01:35:52;;;;;;;4.15;2.83;;;;;;;19.63;nan;-24363.16;5032040;28;20226;-67
2022/09/16 01:38:39;;;;;;;3.95;2.50;;;;;;;19.51;nan;-24359.97;5044496;28;20186;-67
2022/09/16 01:41:43;;;;;;;4.07;2.00;;;;;;;19.49;nan;-24359.41;5043039;28;20633;-67
2022/09/16 01:44:53;;;;;;;8.73;1.98;;;;;;;19.52;nan;-24360.13;5039550;28;20277;-65
2022/09/16 01:47:28;;;;;;;5.22;2.80;;;;;;;19.43;nan;-24357.75;5009476;28;20213;-65
2022/09/16 01:49:58;;;;;;;4.03;2.10;;;;;;;19.45;nan;-24358.16;5042021;28;20194;-68
2022/09/16 01:52:36;;;;;;;3.08;2.08;;;;;;;19.08;nan;-24348.00;5039970;28;20301;-67
2022/09/16 01:55:06;;;;;;;4.60;2.40;;;;;;;19.08;nan;-24348.16;5043964;28;20254;-67
2022/09/16 02:01:00;;;;;;;4.03;2.28;;;;;;;19.41;nan;-24357.34;5037022;28;20202;-66
2022/09/16 02:03:32;;;;;;;2.30;2.10;;;;;;;19.13;nan;-24349.53;5041815;28;20179;-68
2022/09/16 02:06:04;;;;;;;6.05;2.42;;;;;;;19.21;nan;-24351.75;5041587;28;20241;-65
2022/09/16 02:08:38;;;;;;;2.55;2.00;;;;;;;19.55;nan;-24361.09;5037602;28;20186;-67
2022/09/16 02:11:07;;;;;;;3.10;2.30;;;;;;;19.15;nan;-24350.09;5046891;28;20763;-67
2022/09/16 02:13:38;;;;;;;4.45;2.10;;;;;;;19.73;nan;-24366.09;5049354;28;20279;-67
2022/09/16 02:20:04;;;;;;;7.13;2.95;;;;;;;19.51;nan;-24359.84;5038928;28;20700;-67
2022/09/16 02:22:42;;;;;;;2.55;2.05;;;;;;;19.22;nan;-24352.03;5043853;28;20187;-67
2022/09/16 02:25:22;;;;;;;4.75;3.05;;;;;;;19.29;nan;-24353.84;5044675;28;20191;-67
2022/09/16 02:27:50;;;;;;;3.78;2.22;;;;;;;19.32;nan;-24354.81;5047351;28;20528;-65
2022/09/16 02:30:19;;;;;;;3.92;2.67;;;;;;;19.15;nan;-24350.09;5042218;28;20175;-67
2022/09/16 02:32:49;;;;;;;3.13;2.55;;;;;;;19.04;nan;-24346.91;5040147;28;20657;-66
2022/09/16 02:35:20;;;;;;;6.65;2.47;;;;;;;18.98;nan;-24345.38;5037867;28;20179;-67
2022/09/16 02:37:55;;;;;;;3.03;2.13;;;;;;;18.36;nan;-24328.38;5048440;28;20182;-66
2022/09/16 02:40:31;;;;;;;3.58;2.40;;;;;;;18.28;nan;-24326.00;5034790;28;20569;-66
2022/09/16 02:42:58;;;;;;;2.75;2.10;;;;;;;18.55;nan;-24333.53;5040480;28;20186;-66
2022/09/16 02:45:30;;;;;;;4.88;2.63;;;;;;;18.11;nan;-24321.41;5044089;28;20287;-67
2022/09/16 02:48:14;;;;;;;6.70;2.50;;;;;;;18.25;nan;-24325.16;5038787;28;20840;-66
2022/09/16 02:50:42;;;;;;;2.97;2.17;;;;;;;18.55;nan;-24333.53;5032086;28;20233;-66
2022/09/16 02:53:16;;;;;;;3.40;2.30;;;;;;;18.52;nan;-24332.81;5045310;28;20313;-66
2022/09/16 02:55:44;;;;;;;2.47;1.88;;;;;;;18.42;nan;-24329.91;5039448;28;20273;-66
2022/09/16 02:58:10;;;;;;;3.53;2.30;;;;;;;18.29;nan;-24326.41;5036594;28;20183;-66
2022/09/16 03:00:45;;;;;;;3.83;2.45;;;;;;;18.10;nan;-24321.25;5041524;28;20540;-67
2022/09/16 03:03:12;;;;;;;3.63;2.25;;;;;;;17.94;nan;-24316.66;5034534;28;20266;-67
2022/09/16 03:06:02;;;;;;;4.35;2.30;;;;;;;18.29;nan;-24326.41;5033666;28;20198;-67
2022/09/16 03:08:28;;;;;;;4.03;2.22;;;;;;;18.20;nan;-24323.78;5041238;28;20791;-66
2022/09/16 03:10:57;;;;;;;7.20;2.60;;;;;;;18.06;nan;-24320.16;5044700;28;20258;-66
2022/09/16 03:13:57;;;;;;;3.20;2.20;;;;;;;18.68;nan;-24337.00;5031924;28;20195;-66
2022/09/16 03:17:14;;;;;;;3.15;2.20;;;;;;;18.59;nan;-24334.50;5037471;28;20187;-67
2022/09/16 03:19:45;;;;;;;3.80;2.53;;;;;;;18.50;nan;-24332.13;4984051;28;20198;-66
2022/09/16 03:22:22;;;;;;;5.53;2.45;;;;;;;18.35;nan;-24328.09;5035364;28;20214;-66
2022/09/16 03:25:16;;;;;;;3.65;1.83;;;;;;;18.42;nan;-24330.03;5034668;28;20187;-66
2022/09/16 03:27:54;;;;;;;4.20;2.45;;;;;;;18.08;nan;-24320.72;5034916;28;20183;-66
2022/09/16 03:34:03;;;;;;;3.97;2.45;;;;;;;18.56;nan;-24333.66;5028861;28;20253;-66
2022/09/16 03:36:35;;;;;;;3.47;2.38;;;;;;;18.03;nan;-24319.19;5034587;28;21057;-66
2022/09/16 03:39:22;;;;;;;4.22;2.30;;;;;;;18.46;nan;-24331.00;5037265;28;20187;-66
2022/09/16 03:41:48;;;;;;;5.95;3.10;;;;;;;18.43;nan;-24330.19;5034147;28;20252;-67
2022/09/16 03:44:13;;;;;;;3.72;2.35;;;;;;;18.08;nan;-24320.72;5034946;28;20975;-66
2022/09/16 03:46:39;;;;;;;3.45;2.30;;;;;;;18.79;nan;-24340.22;5037144;28;20189;-66
2022/09/16 03:49:14;;;;;;;3.55;2.15;;;;;;;18.65;nan;-24336.19;5036130;28;20757;-66
2022/09/16 03:51:46;;;;;;;3.97;2.67;;;;;;;18.67;nan;-24336.72;5030231;28;20178;-66
2022/09/16 03:54:11;;;;;;;2.63;2.10;;;;;;;18.20;nan;-24323.78;5030918;28;20646;-66
2022/09/16 03:56:36;;;;;;;2.88;2.15;;;;;;;18.31;nan;-24326.97;5034720;28;20192;-66
2022/09/16 03:59:02;;;;;;;3.10;1.88;;;;;;;18.34;nan;-24327.69;5039115;28;20179;-66
2022/09/16 04:01:27;;;;;;;5.13;2.35;;;;;;;18.41;nan;-24329.63;5039513;28;20197;-66
2022/09/16 04:03:53;;;;;;;4.20;2.47;;;;;;;18.81;nan;-24340.78;5037872;28;20249;-66
2022/09/16 04:06:19;;;;;;;3.53;2.50;;;;;;;18.42;nan;-24330.03;5039661;28;20241;-66
2022/09/16 04:08:45;;;;;;;4.30;2.30;;;;;;;18.51;nan;-24332.41;5040349;28;20243;-66
2022/09/16 04:11:10;;;;;;;3.40;2.40;;;;;;;18.61;nan;-24335.19;5039174;28;20190;-66
2022/09/16 04:13:35;;;;;;;3.25;2.22;;;;;;;18.78;nan;-24339.94;5040169;28;20256;-66
2022/09/16 04:16:03;;;;;;;3.60;2.33;;;;;;;18.61;nan;-24335.19;5038202;28;20718;-66
2022/09/16 04:18:33;;;;;;;6.90;2.45;;;;;;;18.46;nan;-24331.16;5043180;28;20208;-66
2022/09/16 05:01:52;;;;;;;6.65;2.70;;;;;;;20.72;nan;-24393.19;5202323;22;20250;-77
2022/09/16 05:04:17;;;;;;;4.95;2.53;;;;;;;20.94;nan;-24399.28;4996066;28;20235;-77
2022/09/16 05:06:43;;;;;;;3.97;2.88;;;;;;;20.71;nan;-24392.91;4991631;28;20224;-79
2022/09/16 05:09:11;;;;;;;3.35;2.33;;;;;;;19.70;nan;-24365.25;4976070;28;20649;-76
2022/09/16 05:11:38;;;;;;;4.68;2.15;;;;;;;20.02;nan;-24374.00;5002879;28;20215;-78
2022/09/16 05:14:07;;;;;;;4.43;2.53;;;;;;;19.84;nan;-24369.00;5011599;28;20184;-78
2022/09/16 05:16:32;;;;;;;5.22;2.60;;;;;;;20.39;nan;-24384.03;5011394;28;20191;-75
2022/09/16 05:18:59;;;;;;;4.40;2.10;;;;;;;20.77;nan;-24394.41;5002458;28;20184;-79
2022/09/16 05:21:26;;;;;;;2.78;2.28;;;;;;;20.85;nan;-24396.78;5004522;28;20302;-80
2022/09/16 05:23:52;;;;;;;3.60;2.15;;;;;;;20.86;nan;-24397.06;5012540;28;20191;-79
2022/09/16 05:26:21;;;;;;;4.60;2.22;;;;;;;21.47;nan;-24413.84;5015551;28;20190;-78
2022/09/16 05:28:49;;;;;;;5.00;2.30;;;;;;;21.91;nan;-24425.91;5032098;28;20175;-79
2022/09/16 05:31:20;;;;;;;5.68;2.60;;;;;;;21.84;nan;-24423.81;5032188;28;20180;-79
2022/09/16 05:34:07;;;;;;;7.15;3.20;;;;;;;21.82;nan;-24423.41;5015349;28;20693;-79
2022/09/16 05:36:36;;;;;;;3.22;2.50;;;;;;;21.55;nan;-24415.91;5026247;28;20194;-80
2022/09/16 05:39:02;;;;;;;6.22;2.78;;;;;;;22.11;nan;-24431.16;5036274;28;20186;-80
2022/09/16 05:41:28;;;;;;;3.88;2.47;;;;;;;22.15;nan;-24432.25;5035984;28;20181;-80
2022/09/16 05:43:56;;;;;;;5.75;2.90;;;;;;;22.55;nan;-24443.34;5036021;28;20174;-64
2022/09/16 05:46:22;;;;;;;5.13;2.63;;;;;;;23.01;nan;-24455.78;5044655;28;20186;-64
2022/09/16 05:48:48;;;;;;;5.15;2.33;;;;;;;23.23;nan;-24462.00;5043661;28;20202;-65
2022/09/16 05:51:16;;;;;;;3.92;2.05;;;;;;;23.43;nan;-24467.38;5041621;28;20642;-65
2022/09/16 05:53:42;;;;;;;6.60;3.08;;;;;;;23.42;nan;-24466.97;5053381;28;20194;-64
2022/09/16 05:56:13;;;;;;;3.20;2.25;;;;;;;23.68;nan;-24474.28;5050485;28;20179;-64
2022/09/16 05:58:39;;;;;;;3.05;2.20;;;;;;;23.85;nan;-24478.69;5033722;28;20262;-64
2022/09/16 06:01:08;;;;;;;3.55;2.45;;;;;;;23.88;nan;-24479.66;5033349;28;20178;-63
2022/09/16 06:03:36;;;;;;;6.63;2.45;;;;;;;24.22;nan;-24488.78;5032443;28;20313;-63
2022/09/16 06:06:03;;;;;;;2.85;2.13;;;;;;;24.40;nan;-24493.88;5032978;28;20262;-63
2022/09/16 06:08:30;;;;;;;4.03;2.45;;;;;;;24.71;nan;-24502.16;5033490;28;20229;-62
2022/09/16 06:10:56;;;;;;;4.45;2.58;;;;;;;24.59;nan;-24498.97;5033389;28;20213;-65
2022/09/16 06:13:21;;;;;;;6.45;2.35;;;;;;;24.51;nan;-24496.78;5033410;28;20210;-65
2022/09/16 06:15:53;;;;;;;2.85;1.77;;;;;;;24.11;nan;-24485.88;5033564;28;20197;-64
2022/09/16 06:18:20;;;;;;;4.30;2.53;;;;;;;23.47;nan;-24468.34;5033386;28;20211;-65
2022/09/16 06:20:46;;;;;;;6.63;2.60;;;;;;;23.20;nan;-24461.03;5033456;28;20171;-65
2022/09/16 06:23:12;;;;;;;4.78;2.30;;;;;;;23.53;nan;-24470.16;5033282;28;20160;-65
2022/09/16 06:25:37;;;;;;;5.05;3.05;;;;;;;23.78;nan;-24476.91;5033329;28;20509;-63
2022/09/16 06:28:03;;;;;;;3.25;2.25;;;;;;;23.52;nan;-24469.88;5033128;28;20172;-63
2022/09/16 06:30:28;;;;;;;4.35;2.63;;;;;;;23.94;nan;-24481.31;5032489;28;20182;-64
2022/09/16 06:32:54;;;;;;;3.55;2.17;;;;;;;24.05;nan;-24484.22;5032638;28;20199;-63
2022/09/16 06:35:20;;;;;;;5.93;2.40;;;;;;;23.74;nan;-24475.94;5033172;28;20167;-62
2022/09/16 06:37:45;;;;;;;2.97;2.22;;;;;;;23.90;nan;-24480.09;5032978;28;20180;-61
2022/09/16 06:40:10;;;;;;;5.68;2.30;;;;;;;24.02;nan;-24483.53;5032506;28;20187;-63
2022/09/16 06:42:36;;;;;;;2.15;1.95;;;;;;;24.39;nan;-24493.59;5032433;28;20507;-63
2022/09/16 06:45:03;;;;;;;4.32;2.20;;;;;;;24.98;nan;-24509.72;5032593;28;20622;-64
2022/09/16 06:47:32;;;;;;;4.63;2.45;;;;;;;25.34;nan;-24519.34;5032506;28;20172;-62
2022/09/16 06:50:00;;;;;;;3.33;2.05;;;;;;;25.58;nan;-24525.97;5032536;28;20175;-64
2022/09/16 06:52:26;;;;;;;3.05;1.70;;;;;;;25.55;nan;-24525.00;5032379;28;20227;-65
2022/09/16 06:54:53;;;;;;;7.38;1.95;;;;;;;25.20;nan;-24515.63;5013885;28;20199;-65
2022/09/16 06:57:21;;;;;;;3.90;2.17;;;;;;;25.09;nan;-24512.63;5030838;28;20190;-65
2022/09/16 06:59:48;;;;;;;3.03;1.90;;;;;;;25.47;nan;-24522.94;5039953;28;20284;-63
2022/09/16 07:02:13;;;;;;;4.30;1.92;;;;;;;25.37;nan;-24520.31;5027311;28;20604;-64
2022/09/16 07:04:39;;;;;;;2.67;1.98;;;;;;;25.29;nan;-24517.97;5012323;28;20176;-64
2022/09/16 07:07:05;;;;;;;5.15;2.42;;;;;;;26.04;nan;-24538.47;5022168;28;20191;-65
2022/09/16 07:09:31;;;;;;;5.38;1.95;;;;;;;25.87;nan;-24533.94;5034214;28;20655;-65
2022/09/16 07:11:58;;;;;;;2.40;1.60;;;;;;;25.85;nan;-24533.25;5040209;28;20198;-64
2022/09/16 07:14:24;;;;;;;2.78;1.80;;;;;;;25.83;nan;-24532.84;5026436;28;20218;-65
2022/09/16 07:16:49;;;;;;;5.80;1.85;;;;;;;26.33;nan;-24546.31;5013090;28;20263;-65
2022/09/16 07:19:15;;;;;;;4.90;2.15;;;;;;;26.34;nan;-24546.72;5022818;28;20629;-64
2022/09/16 07:21:40;;;;;;;3.92;1.70;;;;;;;26.61;nan;-24553.84;5030514;28;20273;-63
2022/09/16 07:24:06;;;;;;;3.83;1.75;;;;;;;26.71;nan;-24556.75;5040688;28;20175;-62
2022/09/16 07:26:33;;;;;;;2.42;1.90;;;;;;;27.08;nan;-24566.63;5026058;28;20179;-63
2022/09/16 07:29:00;;;;;;;8.30;2.28;;;;;;;27.08;nan;-24566.63;5012335;28;20172;-62
2022/09/16 07:31:29;;;;;;;3.20;1.83;;;;;;;26.70;nan;-24556.31;5023143;28;20167;-62
2022/09/16 07:33:57;;;;;;;3.85;2.47;;;;;;;27.08;nan;-24566.75;5031921;28;20199;-65
2022/09/16 07:36:26;;;;;;;3.58;2.15;;;;;;;27.16;nan;-24568.81;5032233;28;20178;-65
2022/09/16 07:38:53;;;;;;;5.60;2.60;;;;;;;27.47;nan;-24577.31;5031361;28;20202;-65
2022/09/16 07:41:21;;;;;;;4.10;2.00;;;;;;;27.67;nan;-24582.81;5033050;28;20178;-64
2022/09/16 07:43:48;;;;;;;2.65;1.85;;;;;;;27.99;nan;-24591.44;5036909;28;20270;-62
2022/09/16 07:46:15;;;;;;;2.28;1.73;;;;;;;28.28;nan;-24599.09;5014919;28;20183;-64
2022/09/16 07:48:41;;;;;;;4.65;2.35;;;;;;;28.63;nan;-24608.66;5013637;28;20179;-65
2022/09/16 07:51:10;;;;;;;5.32;2.00;;;;;;;28.69;nan;-24610.31;5031799;28;20167;-63
2022/09/16 07:53:36;;;;;;;2.65;2.05;;;;;;;28.76;nan;-24612.09;5031547;28;20207;-64
2022/09/16 07:56:06;;;;;;;3.47;2.00;;;;;;;29.08;nan;-24620.69;5031573;28;20171;-63
2022/09/16 07:58:32;;;;;;;4.18;2.13;;;;;;;29.15;nan;-24622.75;5031723;28;20178;-64
2022/09/16 08:00:58;;;;;;;6.38;2.15;;;;;;;29.52;nan;-24632.59;5031682;28;20610;-64
2022/09/16 08:03:24;;;;;;;3.85;2.75;;;;;;;29.45;nan;-24630.66;5031551;28;20225;-64
2022/09/16 08:05:49;;;;;;;2.05;1.77;;;;;;;29.26;nan;-24625.75;5032022;28;20634;-65
2022/09/16 08:08:15;;;;;;;3.92;2.72;;;;;;;29.18;nan;-24623.44;5031758;28;20189;-64
2022/09/16 08:10:40;;;;;;;4.85;2.13;;;;;;;29.11;nan;-24621.66;5031859;28;20206;-63
2022/09/16 08:13:07;;;;;;;4.10;2.08;;;;;;;29.19;nan;-24623.69;5032068;28;20676;-64
2022/09/16 08:15:33;;;;;;;5.78;1.83;;;;;;;29.60;nan;-24634.91;5031864;28;20269;-64
2022/09/16 08:17:58;;;;;;;2.80;2.05;;;;;;;29.93;nan;-24643.63;5031623;28;20640;-64
2022/09/16 08:20:25;;;;;;;2.65;1.77;;;;;;;30.44;nan;-24657.53;5031588;28;20652;-65
2022/09/16 08:22:50;;;;;;;6.85;2.03;;;;;;;30.17;nan;-24650.31;5031896;28;20703;-65
2022/09/16 08:25:16;;;;;;;3.13;1.80;;;;;;;30.27;nan;-24652.91;5031726;28;20171;-65
2022/09/16 08:27:41;;;;;;;4.03;2.38;;;;;;;30.73;nan;-24665.16;5031882;28;20630;-63
2022/09/16 08:30:09;;;;;;;5.95;2.30;;;;;;;31.42;nan;-24683.94;5031747;28;20163;-64
2022/09/16 08:32:34;;;;;;;2.97;2.35;;;;;;;31.01;nan;-24672.94;5032002;28;20711;-63
2022/09/16 08:35:00;;;;;;;4.60;2.03;;;;;;;30.77;nan;-24666.41;5031751;28;20179;-63
2022/09/16 08:37:26;;;;;;;3.70;1.90;;;;;;;31.12;nan;-24675.78;5031591;28;20608;-61
2022/09/16 08:39:51;;;;;;;2.55;1.80;;;;;;;31.51;nan;-24686.25;5031022;28;20179;-63
2022/09/16 08:42:22;;;;;;;4.68;2.30;;;;;;;31.75;nan;-24692.78;5031036;28;20617;-63
2022/09/16 08:44:59;;;;;;;3.35;2.05;;;;;;;31.38;nan;-24682.88;5032609;28;20184;-65
2022/09/16 08:47:47;;;;;;;4.07;2.13;;;;;;;31.38;nan;-24682.88;5034479;28;20178;-65
2022/09/16 08:50:27;;;;;;;3.13;2.03;;;;;;;31.02;nan;-24673.06;5034202;28;20175;-63
2022/09/16 08:52:56;;;;;;;5.97;2.97;;;;;;;31.54;nan;-24687.22;5034212;28;20194;-64
2022/09/16 08:55:38;;;;;;;6.25;4.07;;;;;;;31.70;nan;-24691.28;5034168;28;20186;-63
2022/09/16 08:58:16;;;;;;;4.40;2.42;;;;;;;31.48;nan;-24685.59;5033464;28;20178;-65
2022/09/16 09:00:44;;;;;;;6.00;2.70;;;;;;;31.75;nan;-24692.66;5033833;28;20168;-63
2022/09/16 09:03:37;;;;;;;4.75;3.40;;;;;;;31.63;nan;-24689.41;5034354;28;20225;-62
2022/09/16 09:06:16;;;;;;;4.88;2.50;;;;;;;31.74;nan;-24692.38;5031745;28;20194;-63
2022/09/16 09:08:53;;;;;;;7.07;2.40;;;;;;;31.85;nan;-24695.38;5034081;28;20167;-62
2022/09/16 09:11:34;;;;;;;2.60;2.10;;;;;;;31.88;nan;-24696.31;5033979;28;20174;-63
2022/09/16 09:14:28;;;;;;;3.75;2.03;;;;;;;32.17;nan;-24704.06;5033885;28;20606;-62
2022/09/16 09:17:13;;;;;;;3.80;2.00;;;;;;;32.50;nan;-24712.88;5025829;28;20191;-64
2022/09/16 09:19:50;;;;;;;5.63;2.10;;;;;;;32.62;nan;-24716.00;5033222;28;20553;-65
2022/09/16 09:22:22;;;;;;;2.72;1.80;;;;;;;32.91;nan;-24723.72;5015705;28;20173;-63
2022/09/16 09:25:19;;;;;;;3.15;2.17;;;;;;;32.07;nan;-24701.22;5033572;28;20163;-64
2022/09/16 09:27:59;;;;;;;6.28;2.30;;;;;;;32.27;nan;-24706.78;5033473;28;20645;-64
2022/09/16 09:30:26;;;;;;;4.30;2.25;;;;;;;32.25;nan;-24706.09;5033297;28;20182;-63
2022/09/16 09:33:09;;;;;;;3.85;2.13;;;;;;;32.97;nan;-24725.38;5033437;28;20253;-64
2022/09/16 09:36:05;;;;;;;3.63;2.10;;;;;;;33.22;nan;-24732.28;5033140;28;20163;-62
2022/09/16 09:38:45;;;;;;;4.57;2.25;;;;;;;33.38;nan;-24736.47;5033160;28;20264;-63
2022/09/16 09:41:19;;;;;;;7.78;2.28;;;;;;;33.26;nan;-24733.34;5033436;28;20187;-64
2022/09/16 09:44:00;;;;;;;5.93;2.25;;;;;;;33.56;nan;-24741.22;5033027;28;20674;-63
2022/09/16 09:46:38;;;;;;;3.67;1.80;;;;;;;33.68;nan;-24744.47;5032964;28;20162;-64
2022/09/16 09:49:28;;;;;;;5.03;1.92;;;;;;;33.25;nan;-24732.94;5032753;28;20201;-64
2022/09/16 09:52:06;;;;;;;4.45;2.05;;;;;;;32.24;nan;-24705.81;5032374;28;20633;-63
2022/09/16 09:54:36;;;;;;;7.35;2.22;;;;;;;32.41;nan;-24710.56;5032885;28;20178;-63
2022/09/16 09:57:11;;;;;;;5.57;3.03;;;;;;;32.60;nan;-24715.47;5032814;28;20515;-62
2022/09/16 09:59:54;;;;;;;9.48;4.22;;;;;;;32.33;nan;-24708.28;5033010;28;20163;-63
2022/09/16 10:02:21;;;;;;;4.53;3.55;;;;;;;32.32;nan;-24708.13;5032917;28;20222;-62
2022/09/16 10:04:47;;;;;;;4.90;3.17;;;;;;;32.38;nan;-24709.63;5037053;28;20206;-63
2022/09/16 10:07:16;;;;;;;6.43;2.95;;;;;;;31.75;nan;-24692.78;5052719;28;20202;-63
2022/09/16 10:09:52;;;;;;;6.05;3.47;;;;;;;32.18;nan;-24704.19;5052616;28;20174;-64
2022/09/16 10:12:33;;;;;;;3.88;2.60;;;;;;;32.19;nan;-24704.59;5052557;28;20276;-64
2022/09/16 10:14:59;;;;;;;4.65;2.60;;;;;;;31.78;nan;-24693.47;5052660;28;20162;-63
2022/09/16 10:17:27;;;;;;;4.07;2.45;;;;;;;31.87;nan;-24696.03;5052595;28;20162;-64
2022/09/16 10:20:00;;;;;;;3.80;2.45;;;;;;;31.53;nan;-24686.94;5051931;28;20646;-63
2022/09/16 10:22:29;;;;;;;8.45;2.30;;;;;;;31.74;nan;-24692.38;5052106;28;20174;-64
2022/09/16 10:25:02;;;;;;;4.35;2.83;;;;;;;31.64;nan;-24689.66;5051265;28;20172;-63
2022/09/16 10:27:34;;;;;;;3.70;2.55;;;;;;;31.46;nan;-24685.03;5051624;28;20167;-62
2022/09/16 10:30:11;;;;;;;3.28;2.17;;;;;;;31.47;nan;-24685.31;5052083;28;20209;-64
2022/09/16 10:32:56;;;;;;;3.28;2.20;;;;;;;31.57;nan;-24687.91;5051648;28;20193;-63
2022/09/16 10:35:29;;;;;;;3.00;2.10;;;;;;;31.76;nan;-24692.94;5051715;28;20245;-63
2022/09/16 10:38:01;;;;;;;4.22;2.13;;;;;;;32.23;nan;-24705.69;5051262;28;20170;-64
2022/09/16 10:40:26;;;;;;;10.02;2.10;;;;;;;32.16;nan;-24703.78;5051586;28;20172;-64
2022/09/16 10:42:56;;;;;;;4.15;2.53;;;;;;;31.78;nan;-24693.47;5051462;28;21284;-64
2022/09/16 10:45:30;;;;;;;3.15;2.40;;;;;;;31.99;nan;-24699.16;5051530;28;20174;-63
2022/09/16 10:48:04;;;;;;;4.28;2.30;;;;;;;32.09;nan;-24701.88;5051589;28;20499;-62
2022/09/16 10:50:30;;;;;;;6.25;2.40;;;;;;;32.48;nan;-24712.34;5051328;28;20161;-63
2022/09/16 10:52:55;;;;;;;3.38;2.00;;;;;;;32.52;nan;-24713.44;5051047;28;20258;-65
2022/09/16 10:55:28;;;;;;;4.30;2.10;;;;;;;32.72;nan;-24718.72;5051641;28;20669;-64
2022/09/16 10:58:13;;;;;;;4.45;2.38;;;;;;;32.57;nan;-24714.66;5051252;28;20178;-64
2022/09/16 11:00:57;;;;;;;5.45;2.08;;;;;;;32.88;nan;-24723.06;5051924;28;20166;-63
2022/09/16 11:03:50;;;;;;;5.20;2.50;;;;;;;33.05;nan;-24727.66;5051792;28;20342;-63
2022/09/16 11:06:42;;;;;;;4.00;2.15;;;;;;;33.46;nan;-24738.63;5050800;28;20228;-65
2022/09/16 11:09:11;;;;;;;3.53;2.28;;;;;;;33.85;nan;-24748.94;5050739;28;20232;-64
2022/09/16 11:11:39;;;;;;;3.17;1.83;;;;;;;34.48;nan;-24765.84;5052112;28;20617;-62
2022/09/16 11:14:12;;;;;;;5.53;1.83;;;;;;;34.58;nan;-24768.66;5052704;28;20200;-65
2022/09/16 11:17:00;;;;;;;3.60;2.80;;;;;;;34.50;nan;-24766.38;5052014;28;20185;-63
2022/09/16 11:19:43;;;;;;;3.05;1.95;;;;;;;34.41;nan;-24764.06;5052230;28;20169;-64
2022/09/16 11:22:19;;;;;;;2.22;1.45;;;;;;;34.73;nan;-24772.47;5051977;28;20170;-63
2022/09/16 11:25:25;;;;;;;4.97;2.03;;;;;;;35.18;nan;-24784.59;5052347;28;20166;-65
2022/09/16 11:28:12;;;;;;;4.88;1.70;;;;;;;34.82;nan;-24775.00;5050175;28;20605;-63
2022/09/16 11:31:03;;;;;;;4.93;2.13;;;;;;;35.35;nan;-24789.19;5031467;28;20167;-64
2022/09/16 11:33:45;;;;;;;2.80;2.08;;;;;;;35.02;nan;-24780.28;5031403;28;20220;-65
2022/09/16 11:36:25;;;;;;;2.05;1.67;;;;;;;35.32;nan;-24788.38;5031348;28;20178;-63
2022/09/16 11:38:59;;;;;;;4.18;1.90;;;;;;;35.05;nan;-24780.97;5031240;28;20242;-62
2022/09/16 11:41:56;;;;;;;3.63;1.98;;;;;;;35.10;nan;-24782.31;5031554;28;20533;-66
2022/09/16 11:44:27;;;;;;;2.33;1.83;;;;;;;34.71;nan;-24771.91;5030928;28;20163;-63
2022/09/16 11:47:15;;;;;;;8.05;2.13;;;;;;;34.78;nan;-24773.94;5031540;28;20163;-64
2022/09/16 11:50:09;;;;;;;4.82;2.00;;;;;;;34.62;nan;-24769.47;5031769;28;20167;-64
2022/09/16 11:52:47;;;;;;;6.18;1.80;;;;;;;35.30;nan;-24787.72;5030808;28;20291;-63
2022/09/16 11:55:30;;;;;;;2.72;1.67;;;;;;;35.34;nan;-24788.91;5031160;28;20173;-64
2022/09/16 11:58:27;;;;;;;11.75;1.83;;;;;;;35.09;nan;-24782.03;5031426;28;20268;-63
2022/09/16 12:00:56;;;;;;;4.40;2.08;;;;;;;35.37;nan;-24789.59;5022776;28;20596;-61
2022/09/16 12:03:31;;;;;;;4.50;2.58;;;;;;;35.57;nan;-24794.97;5031501;28;20218;-62
2022/09/16 12:06:19;;;;;;;6.97;2.42;;;;;;;35.91;nan;-24803.88;5030891;28;20189;-63
2022/09/16 12:09:04;;;;;;;5.60;1.80;;;;;;;35.86;nan;-24802.66;5029632;28;20574;-65
2022/09/16 12:11:33;;;;;;;7.22;2.65;;;;;;;36.20;nan;-24811.69;5031903;28;20266;-65
2022/09/16 12:14:17;;;;;;;7.05;2.40;;;;;;;35.73;nan;-24799.31;5031628;28;20198;-65
2022/09/16 12:16:48;;;;;;;4.90;1.95;;;;;;;35.19;nan;-24784.88;5031241;28;20174;-65
2022/09/16 12:19:24;;;;;;;3.42;1.65;;;;;;;34.65;nan;-24770.28;5042655;28;20185;-64
2022/09/16 12:21:57;;;;;;;7.45;2.80;;;;;;;35.21;nan;-24785.28;5030949;28;20686;-65
2022/09/16 12:24:34;;;;;;;6.18;2.83;;;;;;;35.51;nan;-24793.38;5013901;28;20552;-65
2022/09/16 12:27:10;;;;;;;10.05;2.55;;;;;;;35.55;nan;-24794.44;5026511;28;20645;-64
2022/09/16 12:29:59;;;;;;;4.45;1.85;;;;;;;35.51;nan;-24793.38;5035945;28;20166;-64
2022/09/16 12:32:49;;;;;;;8.77;2.65;;;;;;;34.82;nan;-24775.00;5035396;28;20243;-64
2022/09/16 12:35:19;;;;;;;10.35;3.17;;;;;;;33.89;nan;-24750.16;5035441;28;20175;-64
2022/09/16 12:37:50;;;;;;;3.80;1.55;;;;;;;33.20;nan;-24731.59;5035226;28;20594;-64
2022/09/16 12:40:28;;;;;;;5.82;1.65;;;;;;;32.83;nan;-24721.69;5035350;28;20204;-62
2022/09/16 12:43:15;;;;;;;4.35;2.17;;;;;;;32.21;nan;-24705.00;5035012;28;20265;-62
2022/09/16 12:46:01;;;;;;;3.05;1.65;;;;;;;32.45;nan;-24711.53;5035314;28;20247;-63
2022/09/16 12:48:47;;;;;;;3.50;1.48;;;;;;;32.43;nan;-24711.13;5033664;28;20269;-63
2022/09/16 12:51:24;;;;;;;4.25;2.00;;;;;;;32.21;nan;-24705.16;5040070;28;20204;-64
2022/09/16 12:54:01;;;;;;;3.70;1.40;;;;;;;31.89;nan;-24696.59;5035065;28;20725;-65
2022/09/16 12:56:49;;;;;;;5.78;1.85;;;;;;;32.13;nan;-24702.97;5026446;28;20191;-63
2022/09/16 12:59:41;;;;;;;2.10;1.42;;;;;;;32.17;nan;-24704.06;5039182;28;20175;-65
2022/09/16 13:02:15;;;;;;;4.78;1.67;;;;;;;31.67;nan;-24690.63;4983176;28;20227;-64